sensor_id;sensor_type;location;lat;lon;timestamp;temperature;humidity
10451;DHT22;5273;51.290;6.918;2024-03-29T00:01:11;8.40;98.50
10451;DHT22;5273;51.290;6.918;2024-03-29T00:03:37;8.50;98.60
10451;DHT22;5273;51.290;6.918;2024-03-29T00:06:03;8.40;98.60
10451;DHT22;5273;51.290;6.918;2024-03-29T00:08:28;8.40;98.50
10451;DHT22;5273;51.290;6.918;2024-03-29T00:10:54;8.40;98.60
10451;DHT22;5273;51.290;6.918;2024-03-29T00:13:22;8.40;98.60
10451;DHT22;5273;51.290;6.918;2024-03-29T00:15:48;8.40;98.60
10451;DHT22;5273;51.290;6.918;2024-03-29T00:18:13;8.40;98.60
10451;DHT22;5273;51.290;6.918;2024-03-29T00:20:39;8.50;98.60
10451;DHT22;5273;51.290;6.918;2024-03-29T00:23:05;8.40;98.60
10451;DHT22;5273;51.290;6.918;2024-03-29T00:25:31;8.50;98.60
10451;DHT22;5273;51.290;6.918;2024-03-29T00:27:57;8.40;98.50
10451;DHT22;5273;51.290;6.918;2024-03-29T00:30:24;8.40;98.50
10451;DHT22;5273;51.290;6.918;2024-03-29T00:32:50;8.60;98.70
10451;DHT22;5273;51.290;6.918;2024-03-29T00:35:16;8.40;98.60
10451;DHT22;5273;51.290;6.918;2024-03-29T00:37:42;8.40;98.60
10451;DHT22;5273;51.290;6.918;2024-03-29T00:40:09;8.40;98.60
10451;DHT22;5273;51.290;6.918;2024-03-29T00:42:35;8.40;98.60
10451;DHT22;5273;51.290;6.918;2024-03-29T00:45:01;8.40;98.60
10451;DHT22;5273;51.290;6.918;2024-03-29T00:47:28;8.40;98.50
10451;DHT22;5273;51.290;6.918;2024-03-29T00:49:54;8.70;98.60
10451;DHT22;5273;51.290;6.918;2024-03-29T00:52:20;8.40;98.40
10451;DHT22;5273;51.290;6.918;2024-03-29T00:54:46;8.40;98.50
10451;DHT22;5273;51.290;6.918;2024-03-29T00:57:12;8.40;98.20
10451;DHT22;5273;51.290;6.918;2024-03-29T00:59:38;8.40;97.80
10451;DHT22;5273;51.290;6.918;2024-03-29T01:02:05;8.50;98.00
10451;DHT22;5273;51.290;6.918;2024-03-29T01:04:32;8.90;98.00
10451;DHT22;5273;51.290;6.918;2024-03-29T01:06:58;8.50;97.40
10451;DHT22;5273;51.290;6.918;2024-03-29T01:09:24;8.60;97.40
10451;DHT22;5273;51.290;6.918;2024-03-29T01:11:50;8.70;97.30
10451;DHT22;5273;51.290;6.918;2024-03-29T01:14:16;8.60;97.10
10451;DHT22;5273;51.290;6.918;2024-03-29T01:16:42;8.70;97.00
10451;DHT22;5273;51.290;6.918;2024-03-29T01:19:08;8.80;96.80
10451;DHT22;5273;51.290;6.918;2024-03-29T01:21:35;8.80;97.00
10451;DHT22;5273;51.290;6.918;2024-03-29T01:24:01;8.80;96.80
10451;DHT22;5273;51.290;6.918;2024-03-29T01:26:27;8.80;96.40
10451;DHT22;5273;51.290;6.918;2024-03-29T01:28:53;8.80;96.90
10451;DHT22;5273;51.290;6.918;2024-03-29T01:31:19;8.80;96.70
10451;DHT22;5273;51.290;6.918;2024-03-29T01:33:45;8.80;96.60
10451;DHT22;5273;51.290;6.918;2024-03-29T01:36:11;8.90;96.40
10451;DHT22;5273;51.290;6.918;2024-03-29T01:38:38;8.90;96.50
10451;DHT22;5273;51.290;6.918;2024-03-29T01:41:04;8.70;96.10
10451;DHT22;5273;51.290;6.918;2024-03-29T01:43:30;9.10;96.60
10451;DHT22;5273;51.290;6.918;2024-03-29T01:45:56;8.90;96.00
10451;DHT22;5273;51.290;6.918;2024-03-29T01:48:24;9.00;96.40
10451;DHT22;5273;51.290;6.918;2024-03-29T01:50:53;9.30;96.40
10451;DHT22;5273;51.290;6.918;2024-03-29T01:53:23;9.00;96.50
10451;DHT22;5273;51.290;6.918;2024-03-29T01:55:52;9.00;95.90
10451;DHT22;5273;51.290;6.918;2024-03-29T01:58:20;9.10;96.00
10451;DHT22;5273;51.290;6.918;2024-03-29T02:00:51;9.30;96.10
10451;DHT22;5273;51.290;6.918;2024-03-29T02:03:19;9.10;95.70
10451;DHT22;5273;51.290;6.918;2024-03-29T02:05:46;9.20;95.50
10451;DHT22;5273;51.290;6.918;2024-03-29T02:08:14;9.20;95.60
10451;DHT22;5273;51.290;6.918;2024-03-29T02:10:42;9.10;95.60
10451;DHT22;5273;51.290;6.918;2024-03-29T02:13:11;9.20;95.80
10451;DHT22;5273;51.290;6.918;2024-03-29T02:15:36;9.30;95.50
10451;DHT22;5273;51.290;6.918;2024-03-29T02:18:03;9.30;95.50
10451;DHT22;5273;51.290;6.918;2024-03-29T02:20:31;9.30;95.50
10451;DHT22;5273;51.290;6.918;2024-03-29T02:23:05;9.40;95.30
10451;DHT22;5273;51.290;6.918;2024-03-29T02:25:34;9.40;95.50
10451;DHT22;5273;51.290;6.918;2024-03-29T02:28:01;9.30;95.50
10451;DHT22;5273;51.290;6.918;2024-03-29T02:30:29;9.30;95.40
10451;DHT22;5273;51.290;6.918;2024-03-29T02:32:57;9.30;95.20
10451;DHT22;5273;51.290;6.918;2024-03-29T02:35:24;9.30;95.30
10451;DHT22;5273;51.290;6.918;2024-03-29T02:37:51;9.30;94.80
10451;DHT22;5273;51.290;6.918;2024-03-29T02:40:18;9.40;94.50
10451;DHT22;5273;51.290;6.918;2024-03-29T02:42:48;9.50;94.70
10451;DHT22;5273;51.290;6.918;2024-03-29T02:45:15;9.60;94.60
10451;DHT22;5273;51.290;6.918;2024-03-29T02:47:42;9.70;94.50
10451;DHT22;5273;51.290;6.918;2024-03-29T02:50:10;9.60;94.50
10451;DHT22;5273;51.290;6.918;2024-03-29T02:52:36;9.60;94.20
10451;DHT22;5273;51.290;6.918;2024-03-29T02:55:03;9.60;94.40
10451;DHT22;5273;51.290;6.918;2024-03-29T02:57:29;9.60;94.50
10451;DHT22;5273;51.290;6.918;2024-03-29T02:59:57;9.60;95.00
10451;DHT22;5273;51.290;6.918;2024-03-29T03:02:23;9.90;96.10
10451;DHT22;5273;51.290;6.918;2024-03-29T03:04:50;9.50;96.00
10451;DHT22;5273;51.290;6.918;2024-03-29T03:07:16;9.40;95.90
10451;DHT22;5273;51.290;6.918;2024-03-29T03:10:00;9.40;96.50
10451;DHT22;5273;51.290;6.918;2024-03-29T03:12:44;9.40;99.40
10451;DHT22;5273;51.290;6.918;2024-03-29T03:15:12;9.20;99.90
10451;DHT22;5273;51.290;6.918;2024-03-29T03:17:38;9.10;99.90
10451;DHT22;5273;51.290;6.918;2024-03-29T03:20:06;9.50;99.90
10451;DHT22;5273;51.290;6.918;2024-03-29T03:22:32;8.90;99.90
10451;DHT22;5273;51.290;6.918;2024-03-29T03:24:59;8.90;99.90
10451;DHT22;5273;51.290;6.918;2024-03-29T03:27:25;8.90;99.70
10451;DHT22;5273;51.290;6.918;2024-03-29T03:29:51;9.30;99.80
10451;DHT22;5273;51.290;6.918;2024-03-29T03:32:18;8.90;99.40
10451;DHT22;5273;51.290;6.918;2024-03-29T03:34:45;8.90;99.30
10451;DHT22;5273;51.290;6.918;2024-03-29T03:37:11;8.90;99.00
10451;DHT22;5273;51.290;6.918;2024-03-29T03:39:38;8.90;98.80
10451;DHT22;5273;51.290;6.918;2024-03-29T03:42:04;8.90;99.30
10451;DHT22;5273;51.290;6.918;2024-03-29T03:44:31;8.90;99.20
10451;DHT22;5273;51.290;6.918;2024-03-29T03:46:57;9.00;98.80
10451;DHT22;5273;51.290;6.918;2024-03-29T03:49:25;9.10;98.70
10451;DHT22;5273;51.290;6.918;2024-03-29T03:51:51;9.00;98.80
10451;DHT22;5273;51.290;6.918;2024-03-29T03:54:17;9.00;98.80
10451;DHT22;5273;51.290;6.918;2024-03-29T03:56:43;8.90;98.90
10451;DHT22;5273;51.290;6.918;2024-03-29T03:59:10;8.90;98.30
10451;DHT22;5273;51.290;6.918;2024-03-29T04:01:36;9.20;98.60
10451;DHT22;5273;51.290;6.918;2024-03-29T04:04:03;9.00;98.30
10451;DHT22;5273;51.290;6.918;2024-03-29T04:06:30;8.90;98.10
10451;DHT22;5273;51.290;6.918;2024-03-29T04:08:57;9.00;98.20
10451;DHT22;5273;51.290;6.918;2024-03-29T04:11:23;9.00;98.20
10451;DHT22;5273;51.290;6.918;2024-03-29T04:13:50;9.00;98.00
10451;DHT22;5273;51.290;6.918;2024-03-29T04:16:15;9.00;97.60
10451;DHT22;5273;51.290;6.918;2024-03-29T04:18:42;9.00;97.40
10451;DHT22;5273;51.290;6.918;2024-03-29T04:21:08;9.20;98.00
10451;DHT22;5273;51.290;6.918;2024-03-29T04:23:36;9.10;97.30
10451;DHT22;5273;51.290;6.918;2024-03-29T04:26:03;9.10;97.20
10451;DHT22;5273;51.290;6.918;2024-03-29T04:28:29;9.10;97.40
10451;DHT22;5273;51.290;6.918;2024-03-29T04:30:56;9.20;98.10
10451;DHT22;5273;51.290;6.918;2024-03-29T04:33:24;9.10;98.40
10451;DHT22;5273;51.290;6.918;2024-03-29T04:35:53;9.40;98.90
10451;DHT22;5273;51.290;6.918;2024-03-29T04:38:20;8.90;99.80
10451;DHT22;5273;51.290;6.918;2024-03-29T04:40:49;9.00;99.90
10451;DHT22;5273;51.290;6.918;2024-03-29T04:43:15;8.90;99.90
10451;DHT22;5273;51.290;6.918;2024-03-29T04:45:43;8.80;99.90
10451;DHT22;5273;51.290;6.918;2024-03-29T04:48:10;9.00;99.90
10451;DHT22;5273;51.290;6.918;2024-03-29T04:50:37;8.70;99.90
10451;DHT22;5273;51.290;6.918;2024-03-29T04:53:04;8.90;99.90
10451;DHT22;5273;51.290;6.918;2024-03-29T04:55:31;8.70;99.90
10451;DHT22;5273;51.290;6.918;2024-03-29T04:57:59;8.80;99.90
10451;DHT22;5273;51.290;6.918;2024-03-29T05:00:26;8.40;99.90
10451;DHT22;5273;51.290;6.918;2024-03-29T05:02:53;8.70;99.90
10451;DHT22;5273;51.290;6.918;2024-03-29T05:05:19;8.30;99.90
10451;DHT22;5273;51.290;6.918;2024-03-29T05:07:46;8.60;99.90
10451;DHT22;5273;51.290;6.918;2024-03-29T05:10:13;8.20;99.90
10451;DHT22;5273;51.290;6.918;2024-03-29T05:12:41;8.20;99.90
10451;DHT22;5273;51.290;6.918;2024-03-29T05:15:09;8.10;99.90
10451;DHT22;5273;51.290;6.918;2024-03-29T05:17:37;8.10;99.90
10451;DHT22;5273;51.290;6.918;2024-03-29T05:20:04;8.00;99.90
10451;DHT22;5273;51.290;6.918;2024-03-29T05:22:31;8.00;99.90
10451;DHT22;5273;51.290;6.918;2024-03-29T05:24:58;8.00;99.90
10451;DHT22;5273;51.290;6.918;2024-03-29T05:27:25;8.00;99.90
10451;DHT22;5273;51.290;6.918;2024-03-29T05:29:52;8.00;99.90
10451;DHT22;5273;51.290;6.918;2024-03-29T05:32:20;8.00;99.90
10451;DHT22;5273;51.290;6.918;2024-03-29T05:34:46;8.00;99.90
10451;DHT22;5273;51.290;6.918;2024-03-29T05:37:13;8.10;99.90
10451;DHT22;5273;51.290;6.918;2024-03-29T05:39:43;8.00;99.90
10451;DHT22;5273;51.290;6.918;2024-03-29T05:42:10;8.10;99.90
10451;DHT22;5273;51.290;6.918;2024-03-29T05:44:37;8.10;99.90
10451;DHT22;5273;51.290;6.918;2024-03-29T05:47:04;8.10;99.90
10451;DHT22;5273;51.290;6.918;2024-03-29T05:49:34;8.10;99.90
10451;DHT22;5273;51.290;6.918;2024-03-29T05:52:00;8.00;99.90
10451;DHT22;5273;51.290;6.918;2024-03-29T05:54:27;8.00;99.90
10451;DHT22;5273;51.290;6.918;2024-03-29T05:56:54;8.10;99.90
10451;DHT22;5273;51.290;6.918;2024-03-29T05:59:21;8.00;99.90
10451;DHT22;5273;51.290;6.918;2024-03-29T06:01:48;8.00;99.90
10451;DHT22;5273;51.290;6.918;2024-03-29T06:04:14;8.00;99.90
10451;DHT22;5273;51.290;6.918;2024-03-29T06:06:46;8.10;99.90
10451;DHT22;5273;51.290;6.918;2024-03-29T06:09:12;8.00;99.90
10451;DHT22;5273;51.290;6.918;2024-03-29T06:11:39;8.10;99.90
10451;DHT22;5273;51.290;6.918;2024-03-29T06:14:06;8.00;99.90
10451;DHT22;5273;51.290;6.918;2024-03-29T06:16:50;8.00;99.90
10451;DHT22;5273;51.290;6.918;2024-03-29T06:19:34;8.00;99.90
10451;DHT22;5273;51.290;6.918;2024-03-29T06:22:03;7.90;99.90
10451;DHT22;5273;51.290;6.918;2024-03-29T06:24:30;7.90;99.90
10451;DHT22;5273;51.290;6.918;2024-03-29T06:26:58;7.90;99.90
10451;DHT22;5273;51.290;6.918;2024-03-29T06:29:24;7.90;99.90
10451;DHT22;5273;51.290;6.918;2024-03-29T06:31:51;8.00;99.90
10451;DHT22;5273;51.290;6.918;2024-03-29T06:34:18;8.00;99.90
10451;DHT22;5273;51.290;6.918;2024-03-29T06:36:45;8.10;99.90
10451;DHT22;5273;51.290;6.918;2024-03-29T06:39:13;8.10;99.90
10451;DHT22;5273;51.290;6.918;2024-03-29T06:41:40;8.20;99.90
10451;DHT22;5273;51.290;6.918;2024-03-29T06:44:07;8.20;99.90
10451;DHT22;5273;51.290;6.918;2024-03-29T06:46:33;8.20;99.90
10451;DHT22;5273;51.290;6.918;2024-03-29T06:49:00;8.20;99.90
10451;DHT22;5273;51.290;6.918;2024-03-29T06:51:28;8.20;99.90
10451;DHT22;5273;51.290;6.918;2024-03-29T06:53:54;8.20;99.90
10451;DHT22;5273;51.290;6.918;2024-03-29T06:56:23;8.20;99.90
10451;DHT22;5273;51.290;6.918;2024-03-29T06:58:49;8.30;99.90
10451;DHT22;5273;51.290;6.918;2024-03-29T07:01:16;8.30;99.90
10451;DHT22;5273;51.290;6.918;2024-03-29T07:03:43;8.40;99.90
10451;DHT22;5273;51.290;6.918;2024-03-29T07:06:10;8.40;99.90
10451;DHT22;5273;51.290;6.918;2024-03-29T07:08:37;8.40;99.90
10451;DHT22;5273;51.290;6.918;2024-03-29T07:11:04;8.50;99.90
10451;DHT22;5273;51.290;6.918;2024-03-29T07:13:32;8.60;99.90
10451;DHT22;5273;51.290;6.918;2024-03-29T07:15:59;8.70;99.90
10451;DHT22;5273;51.290;6.918;2024-03-29T07:18:27;8.80;99.90
10451;DHT22;5273;51.290;6.918;2024-03-29T07:20:53;8.80;99.90
10451;DHT22;5273;51.290;6.918;2024-03-29T07:23:20;8.80;99.90
10451;DHT22;5273;51.290;6.918;2024-03-29T07:25:58;8.90;99.90
10451;DHT22;5273;51.290;6.918;2024-03-29T07:28:25;8.90;99.90
10451;DHT22;5273;51.290;6.918;2024-03-29T07:30:53;8.90;99.90
10451;DHT22;5273;51.290;6.918;2024-03-29T07:33:20;9.10;99.90
10451;DHT22;5273;51.290;6.918;2024-03-29T07:35:49;9.10;99.90
10451;DHT22;5273;51.290;6.918;2024-03-29T07:38:16;9.00;99.90
10451;DHT22;5273;51.290;6.918;2024-03-29T07:40:43;9.20;99.90
10451;DHT22;5273;51.290;6.918;2024-03-29T07:43:10;9.20;99.90
10451;DHT22;5273;51.290;6.918;2024-03-29T07:45:39;9.70;99.90
10451;DHT22;5273;51.290;6.918;2024-03-29T07:48:11;9.30;99.90
10451;DHT22;5273;51.290;6.918;2024-03-29T07:50:38;9.20;99.90
10451;DHT22;5273;51.290;6.918;2024-03-29T07:53:05;9.20;99.90
10451;DHT22;5273;51.290;6.918;2024-03-29T07:55:32;9.30;99.90
10451;DHT22;5273;51.290;6.918;2024-03-29T07:57:59;9.20;99.90
10451;DHT22;5273;51.290;6.918;2024-03-29T08:00:26;9.20;99.90
10451;DHT22;5273;51.290;6.918;2024-03-29T08:02:53;9.30;99.90
10451;DHT22;5273;51.290;6.918;2024-03-29T08:05:21;9.30;99.90
10451;DHT22;5273;51.290;6.918;2024-03-29T08:07:48;9.30;99.90
10451;DHT22;5273;51.290;6.918;2024-03-29T08:10:15;9.30;99.90
10451;DHT22;5273;51.290;6.918;2024-03-29T08:12:42;9.40;99.90
10451;DHT22;5273;51.290;6.918;2024-03-29T08:15:09;9.40;99.90
10451;DHT22;5273;51.290;6.918;2024-03-29T08:17:36;9.40;99.90
10451;DHT22;5273;51.290;6.918;2024-03-29T08:20:03;9.40;99.90
10451;DHT22;5273;51.290;6.918;2024-03-29T08:22:31;9.40;99.90
10451;DHT22;5273;51.290;6.918;2024-03-29T08:24:58;9.40;99.90
10451;DHT22;5273;51.290;6.918;2024-03-29T08:27:26;9.40;99.90
10451;DHT22;5273;51.290;6.918;2024-03-29T08:29:53;9.40;99.90
10451;DHT22;5273;51.290;6.918;2024-03-29T08:32:20;9.50;99.90
10451;DHT22;5273;51.290;6.918;2024-03-29T08:34:46;9.60;99.90
10451;DHT22;5273;51.290;6.918;2024-03-29T08:37:13;9.60;99.90
10451;DHT22;5273;51.290;6.918;2024-03-29T08:39:42;9.60;99.90
10451;DHT22;5273;51.290;6.918;2024-03-29T08:42:08;9.70;99.90
10451;DHT22;5273;51.290;6.918;2024-03-29T08:44:37;9.70;99.90
10451;DHT22;5273;51.290;6.918;2024-03-29T08:47:05;10.00;99.90
10451;DHT22;5273;51.290;6.918;2024-03-29T08:49:32;9.90;99.90
10451;DHT22;5273;51.290;6.918;2024-03-29T08:51:59;9.90;99.90
10451;DHT22;5273;51.290;6.918;2024-03-29T08:54:30;10.00;99.90
10451;DHT22;5273;51.290;6.918;2024-03-29T08:56:58;10.30;99.90
10451;DHT22;5273;51.290;6.918;2024-03-29T08:59:27;10.00;99.90
10451;DHT22;5273;51.290;6.918;2024-03-29T09:01:54;10.00;99.90
10451;DHT22;5273;51.290;6.918;2024-03-29T09:04:21;10.10;99.90
10451;DHT22;5273;51.290;6.918;2024-03-29T09:06:49;10.00;99.90
10451;DHT22;5273;51.290;6.918;2024-03-29T09:09:16;10.00;99.90
10451;DHT22;5273;51.290;6.918;2024-03-29T09:11:43;10.20;99.90
10451;DHT22;5273;51.290;6.918;2024-03-29T09:14:11;10.30;99.90
10451;DHT22;5273;51.290;6.918;2024-03-29T09:16:38;10.60;99.90
10451;DHT22;5273;51.290;6.918;2024-03-29T09:19:06;10.20;99.90
10451;DHT22;5273;51.290;6.918;2024-03-29T09:21:33;10.30;99.90
10451;DHT22;5273;51.290;6.918;2024-03-29T09:24:00;10.40;99.90
10451;DHT22;5273;51.290;6.918;2024-03-29T09:26:27;10.50;99.90
10451;DHT22;5273;51.290;6.918;2024-03-29T09:28:54;10.80;99.90
10451;DHT22;5273;51.290;6.918;2024-03-29T09:31:22;10.80;99.90
10451;DHT22;5273;51.290;6.918;2024-03-29T09:33:49;11.00;99.90
10451;DHT22;5273;51.290;6.918;2024-03-29T09:36:20;11.20;99.90
10451;DHT22;5273;51.290;6.918;2024-03-29T09:38:48;11.30;99.90
10451;DHT22;5273;51.290;6.918;2024-03-29T09:41:16;11.70;99.90
10451;DHT22;5273;51.290;6.918;2024-03-29T09:43:45;11.50;99.90
10451;DHT22;5273;51.290;6.918;2024-03-29T09:46:13;11.60;99.90
10451;DHT22;5273;51.290;6.918;2024-03-29T09:48:42;11.70;99.90
10451;DHT22;5273;51.290;6.918;2024-03-29T09:51:12;11.80;99.90
10451;DHT22;5273;51.290;6.918;2024-03-29T09:53:41;11.90;99.90
10451;DHT22;5273;51.290;6.918;2024-03-29T09:56:09;11.90;99.90
10451;DHT22;5273;51.290;6.918;2024-03-29T09:58:37;11.90;99.90
10451;DHT22;5273;51.290;6.918;2024-03-29T10:01:06;11.90;99.90
10451;DHT22;5273;51.290;6.918;2024-03-29T10:03:38;12.00;99.90
10451;DHT22;5273;51.290;6.918;2024-03-29T10:06:07;12.00;99.90
10451;DHT22;5273;51.290;6.918;2024-03-29T10:08:35;12.00;99.90
10451;DHT22;5273;51.290;6.918;2024-03-29T10:11:03;12.10;99.90
10451;DHT22;5273;51.290;6.918;2024-03-29T10:13:29;12.10;99.90
10451;DHT22;5273;51.290;6.918;2024-03-29T10:15:56;12.20;99.90
10451;DHT22;5273;51.290;6.918;2024-03-29T10:18:25;12.70;99.90
10451;DHT22;5273;51.290;6.918;2024-03-29T10:20:59;12.30;99.90
10451;DHT22;5273;51.290;6.918;2024-03-29T10:23:28;12.40;99.90
10451;DHT22;5273;51.290;6.918;2024-03-29T10:25:55;12.40;99.90
10451;DHT22;5273;51.290;6.918;2024-03-29T10:28:22;12.50;99.90
10451;DHT22;5273;51.290;6.918;2024-03-29T10:30:49;12.40;99.90
10451;DHT22;5273;51.290;6.918;2024-03-29T10:33:16;12.50;99.90
10451;DHT22;5273;51.290;6.918;2024-03-29T10:35:43;12.50;99.90
10451;DHT22;5273;51.290;6.918;2024-03-29T10:38:11;12.60;99.90
10451;DHT22;5273;51.290;6.918;2024-03-29T10:40:39;12.50;99.90
10451;DHT22;5273;51.290;6.918;2024-03-29T10:43:08;12.60;99.90
10451;DHT22;5273;51.290;6.918;2024-03-29T10:45:39;12.50;99.90
10451;DHT22;5273;51.290;6.918;2024-03-29T10:48:09;12.50;99.90
10451;DHT22;5273;51.290;6.918;2024-03-29T10:50:37;12.50;99.90
10451;DHT22;5273;51.290;6.918;2024-03-29T10:53:05;12.60;99.90
10451;DHT22;5273;51.290;6.918;2024-03-29T10:55:33;12.80;99.90
10451;DHT22;5273;51.290;6.918;2024-03-29T10:58:03;12.80;99.90
10451;DHT22;5273;51.290;6.918;2024-03-29T11:00:33;12.90;99.90
10451;DHT22;5273;51.290;6.918;2024-03-29T11:03:11;13.00;99.90
10451;DHT22;5273;51.290;6.918;2024-03-29T11:05:44;13.20;99.90
10451;DHT22;5273;51.290;6.918;2024-03-29T11:08:12;13.30;99.90
10451;DHT22;5273;51.290;6.918;2024-03-29T11:10:41;13.70;99.90
10451;DHT22;5273;51.290;6.918;2024-03-29T11:13:19;13.70;99.90
10451;DHT22;5273;51.290;6.918;2024-03-29T11:15:49;13.80;99.90
10451;DHT22;5273;51.290;6.918;2024-03-29T11:18:17;13.90;99.90
10451;DHT22;5273;51.290;6.918;2024-03-29T11:20:45;14.00;99.90
10451;DHT22;5273;51.290;6.918;2024-03-29T11:23:17;14.10;99.90
10451;DHT22;5273;51.290;6.918;2024-03-29T11:25:45;14.30;99.90
10451;DHT22;5273;51.290;6.918;2024-03-29T11:28:15;14.40;99.90
10451;DHT22;5273;51.290;6.918;2024-03-29T11:30:48;14.40;99.90
10451;DHT22;5273;51.290;6.918;2024-03-29T11:33:30;14.40;99.90
10451;DHT22;5273;51.290;6.918;2024-03-29T11:35:58;14.30;99.90
10451;DHT22;5273;51.290;6.918;2024-03-29T11:38:32;14.30;99.90
10451;DHT22;5273;51.290;6.918;2024-03-29T11:41:03;14.30;99.90
10451;DHT22;5273;51.290;6.918;2024-03-29T11:43:33;14.30;99.90
10451;DHT22;5273;51.290;6.918;2024-03-29T11:46:01;14.40;99.90
10451;DHT22;5273;51.290;6.918;2024-03-29T11:48:29;14.40;99.90
10451;DHT22;5273;51.290;6.918;2024-03-29T11:50:57;14.40;99.40
10451;DHT22;5273;51.290;6.918;2024-03-29T11:53:25;14.40;99.70
10451;DHT22;5273;51.290;6.918;2024-03-29T11:55:52;14.30;98.20
10451;DHT22;5273;51.290;6.918;2024-03-29T11:58:21;14.40;98.90
10451;DHT22;5273;51.290;6.918;2024-03-29T12:00:50;14.50;98.70
10451;DHT22;5273;51.290;6.918;2024-03-29T12:03:17;14.50;97.90
10451;DHT22;5273;51.290;6.918;2024-03-29T12:05:46;14.50;97.10
10451;DHT22;5273;51.290;6.918;2024-03-29T12:08:14;14.40;97.50
10451;DHT22;5273;51.290;6.918;2024-03-29T12:10:41;14.40;97.40
10451;DHT22;5273;51.290;6.918;2024-03-29T12:13:08;14.30;97.50
10451;DHT22;5273;51.290;6.918;2024-03-29T12:15:35;14.20;98.20
10451;DHT22;5273;51.290;6.918;2024-03-29T12:18:04;14.20;97.70
10451;DHT22;5273;51.290;6.918;2024-03-29T12:20:32;14.10;98.30
10451;DHT22;5273;51.290;6.918;2024-03-29T12:22:59;14.20;98.80
10451;DHT22;5273;51.290;6.918;2024-03-29T12:25:26;14.10;98.90
10451;DHT22;5273;51.290;6.918;2024-03-29T12:27:53;14.20;98.80
10451;DHT22;5273;51.290;6.918;2024-03-29T12:30:20;14.30;98.70
10451;DHT22;5273;51.290;6.918;2024-03-29T12:32:47;14.40;98.70
10451;DHT22;5273;51.290;6.918;2024-03-29T12:35:16;14.30;98.00
10451;DHT22;5273;51.290;6.918;2024-03-29T12:37:50;14.30;98.50
10451;DHT22;5273;51.290;6.918;2024-03-29T12:40:17;14.30;98.50
10451;DHT22;5273;51.290;6.918;2024-03-29T12:42:48;14.40;98.70
10451;DHT22;5273;51.290;6.918;2024-03-29T12:45:15;14.50;98.60
10451;DHT22;5273;51.290;6.918;2024-03-29T12:47:42;14.50;98.70
10451;DHT22;5273;51.290;6.918;2024-03-29T12:50:11;14.50;98.50
10451;DHT22;5273;51.290;6.918;2024-03-29T12:52:41;14.40;98.80
10451;DHT22;5273;51.290;6.918;2024-03-29T12:55:08;14.40;98.70
10451;DHT22;5273;51.290;6.918;2024-03-29T12:57:36;14.40;99.20
10451;DHT22;5273;51.290;6.918;2024-03-29T13:00:07;14.40;98.60
10451;DHT22;5273;51.290;6.918;2024-03-29T13:02:35;14.40;99.00
10451;DHT22;5273;51.290;6.918;2024-03-29T13:05:02;14.50;99.00
10451;DHT22;5273;51.290;6.918;2024-03-29T13:07:29;14.60;98.10
10451;DHT22;5273;51.290;6.918;2024-03-29T13:09:58;14.60;97.60
10451;DHT22;5273;51.290;6.918;2024-03-29T13:12:28;14.60;98.20
10451;DHT22;5273;51.290;6.918;2024-03-29T13:14:55;14.60;98.30
10451;DHT22;5273;51.290;6.918;2024-03-29T13:17:22;14.60;97.80
10451;DHT22;5273;51.290;6.918;2024-03-29T13:19:49;14.60;97.80
10451;DHT22;5273;51.290;6.918;2024-03-29T13:22:15;14.60;97.40
10451;DHT22;5273;51.290;6.918;2024-03-29T13:24:43;14.60;97.20
10451;DHT22;5273;51.290;6.918;2024-03-29T13:27:12;14.60;97.40
10451;DHT22;5273;51.290;6.918;2024-03-29T13:29:39;14.60;97.70
10451;DHT22;5273;51.290;6.918;2024-03-29T13:32:07;14.60;97.30
10451;DHT22;5273;51.290;6.918;2024-03-29T13:34:34;14.60;97.10
10451;DHT22;5273;51.290;6.918;2024-03-29T13:37:01;14.80;96.70
10451;DHT22;5273;51.290;6.918;2024-03-29T13:39:27;14.80;96.40
10451;DHT22;5273;51.290;6.918;2024-03-29T13:41:54;14.90;96.50
10451;DHT22;5273;51.290;6.918;2024-03-29T13:44:22;15.10;97.10
10451;DHT22;5273;51.290;6.918;2024-03-29T13:47:03;15.30;96.50
10451;DHT22;5273;51.290;6.918;2024-03-29T13:49:30;15.60;95.30
10451;DHT22;5273;51.290;6.918;2024-03-29T13:51:57;15.80;96.50
10451;DHT22;5273;51.290;6.918;2024-03-29T13:54:24;16.00;95.30
10451;DHT22;5273;51.290;6.918;2024-03-29T13:56:51;16.10;95.70
10451;DHT22;5273;51.290;6.918;2024-03-29T13:59:18;16.30;96.90
10451;DHT22;5273;51.290;6.918;2024-03-29T14:01:46;16.30;95.10
10451;DHT22;5273;51.290;6.918;2024-03-29T14:04:13;16.30;95.10
10451;DHT22;5273;51.290;6.918;2024-03-29T14:06:40;16.00;97.70
10451;DHT22;5273;51.290;6.918;2024-03-29T14:09:06;16.00;99.00
10451;DHT22;5273;51.290;6.918;2024-03-29T14:11:33;15.90;99.30
10451;DHT22;5273;51.290;6.918;2024-03-29T14:14:00;15.70;99.40
10451;DHT22;5273;51.290;6.918;2024-03-29T14:16:27;15.70;99.90
10451;DHT22;5273;51.290;6.918;2024-03-29T14:18:55;15.60;99.60
10451;DHT22;5273;51.290;6.918;2024-03-29T14:21:22;15.50;99.90
10451;DHT22;5273;51.290;6.918;2024-03-29T14:23:48;15.40;99.90
10451;DHT22;5273;51.290;6.918;2024-03-29T14:26:15;15.40;99.90
10451;DHT22;5273;51.290;6.918;2024-03-29T14:28:42;15.50;99.90
10451;DHT22;5273;51.290;6.918;2024-03-29T14:31:09;15.60;99.90
10451;DHT22;5273;51.290;6.918;2024-03-29T14:33:36;15.70;99.90
10451;DHT22;5273;51.290;6.918;2024-03-29T14:36:05;15.60;98.70
10451;DHT22;5273;51.290;6.918;2024-03-29T14:38:31;15.70;98.20
10451;DHT22;5273;51.290;6.918;2024-03-29T14:40:58;15.70;97.70
10451;DHT22;5273;51.290;6.918;2024-03-29T14:43:25;15.80;96.40
10451;DHT22;5273;51.290;6.918;2024-03-29T14:45:52;15.80;94.80
10451;DHT22;5273;51.290;6.918;2024-03-29T14:48:18;15.80;94.30
10451;DHT22;5273;51.290;6.918;2024-03-29T14:50:45;15.80;94.30
10451;DHT22;5273;51.290;6.918;2024-03-29T14:53:13;15.70;94.50
10451;DHT22;5273;51.290;6.918;2024-03-29T14:55:40;15.60;93.40
10451;DHT22;5273;51.290;6.918;2024-03-29T14:58:07;15.60;94.10
10451;DHT22;5273;51.290;6.918;2024-03-29T15:00:35;15.50;93.70
10451;DHT22;5273;51.290;6.918;2024-03-29T15:03:01;15.50;94.40
10451;DHT22;5273;51.290;6.918;2024-03-29T15:05:29;15.60;93.80
10451;DHT22;5273;51.290;6.918;2024-03-29T15:07:56;15.50;94.00
10451;DHT22;5273;51.290;6.918;2024-03-29T15:10:24;15.50;94.00
10451;DHT22;5273;51.290;6.918;2024-03-29T15:12:51;15.30;94.00
10451;DHT22;5273;51.290;6.918;2024-03-29T15:15:18;15.30;94.70
10451;DHT22;5273;51.290;6.918;2024-03-29T15:17:45;15.30;95.70
10451;DHT22;5273;51.290;6.918;2024-03-29T15:20:11;15.10;96.20
10451;DHT22;5273;51.290;6.918;2024-03-29T15:22:41;15.00;96.00
10451;DHT22;5273;51.290;6.918;2024-03-29T15:25:09;14.90;96.50
10451;DHT22;5273;51.290;6.918;2024-03-29T15:27:37;14.90;97.00
10451;DHT22;5273;51.290;6.918;2024-03-29T15:30:22;14.90;96.50
10451;DHT22;5273;51.290;6.918;2024-03-29T15:32:49;14.90;96.70
10451;DHT22;5273;51.290;6.918;2024-03-29T15:35:16;14.90;96.80
10451;DHT22;5273;51.290;6.918;2024-03-29T15:37:43;14.80;96.10
10451;DHT22;5273;51.290;6.918;2024-03-29T15:40:10;14.60;96.40
10451;DHT22;5273;51.290;6.918;2024-03-29T15:42:38;14.60;96.40
10451;DHT22;5273;51.290;6.918;2024-03-29T15:45:08;14.50;96.30
10451;DHT22;5273;51.290;6.918;2024-03-29T15:47:35;14.40;96.80
10451;DHT22;5273;51.290;6.918;2024-03-29T15:50:02;14.40;96.80
10451;DHT22;5273;51.290;6.918;2024-03-29T15:52:29;14.30;96.90
10451;DHT22;5273;51.290;6.918;2024-03-29T15:54:56;14.70;97.00
10451;DHT22;5273;51.290;6.918;2024-03-29T15:57:23;14.30;96.80